sensor_id;sensor_type;location;lat;lon;timestamp;temperature;humidity
47414;DHT22;33163;0.000;0.000;2022-12-05T00:01:17;18.50;55.70
47414;DHT22;33163;0.000;0.000;2022-12-05T00:03:44;18.50;55.70
47414;DHT22;33163;0.000;0.000;2022-12-05T00:06:11;18.50;55.70
47414;DHT22;33163;0.000;0.000;2022-12-05T00:08:38;18.50;55.60
47414;DHT22;33163;0.000;0.000;2022-12-05T00:11:10;18.50;55.60
47414;DHT22;33163;0.000;0.000;2022-12-05T00:13:37;18.50;55.70
47414;DHT22;33163;0.000;0.000;2022-12-05T00:16:10;18.50;55.60
47414;DHT22;33163;0.000;0.000;2022-12-05T00:18:38;18.50;55.60
47414;DHT22;33163;0.000;0.000;2022-12-05T00:21:06;18.50;55.70
47414;DHT22;33163;0.000;0.000;2022-12-05T00:23:33;18.50;55.70
47414;DHT22;33163;0.000;0.000;2022-12-05T00:26:01;18.50;55.70
47414;DHT22;33163;0.000;0.000;2022-12-05T00:28:29;18.50;55.60
47414;DHT22;33163;0.000;0.000;2022-12-05T00:30:56;18.50;55.60
47414;DHT22;33163;0.000;0.000;2022-12-05T00:33:23;18.40;55.60
47414;DHT22;33163;0.000;0.000;2022-12-05T00:35:51;18.40;55.50
47414;DHT22;33163;0.000;0.000;2022-12-05T00:38:18;18.40;55.40
47414;DHT22;33163;0.000;0.000;2022-12-05T00:40:45;18.40;55.40
47414;DHT22;33163;0.000;0.000;2022-12-05T00:43:11;18.70;55.40
47414;DHT22;33163;0.000;0.000;2022-12-05T00:45:38;18.80;55.00
47414;DHT22;33163;0.000;0.000;2022-12-05T00:48:05;19.00;54.60
47414;DHT22;33163;0.000;0.000;2022-12-05T00:50:31;19.20;54.10
47414;DHT22;33163;0.000;0.000;2022-12-05T00:52:59;19.20;53.80
47414;DHT22;33163;0.000;0.000;2022-12-05T00:55:26;19.10;53.70
47414;DHT22;33163;0.000;0.000;2022-12-05T00:57:53;19.10;53.80
47414;DHT22;33163;0.000;0.000;2022-12-05T01:00:20;19.00;53.90
47414;DHT22;33163;0.000;0.000;2022-12-05T01:02:47;18.90;54.10
47414;DHT22;33163;0.000;0.000;2022-12-05T01:05:14;18.70;54.30
47414;DHT22;33163;0.000;0.000;2022-12-05T01:07:40;18.70;54.60
47414;DHT22;33163;0.000;0.000;2022-12-05T01:10:09;18.90;54.60
47414;DHT22;33163;0.000;0.000;2022-12-05T01:12:36;18.90;54.40
47414;DHT22;33163;0.000;0.000;2022-12-05T01:15:03;19.10;54.00
47414;DHT22;33163;0.000;0.000;2022-12-05T01:17:30;19.20;53.70
47414;DHT22;33163;0.000;0.000;2022-12-05T01:19:57;19.20;53.50
47414;DHT22;33163;0.000;0.000;2022-12-05T01:22:23;19.30;53.60
47414;DHT22;33163;0.000;0.000;2022-12-05T01:24:50;19.10;53.70
47414;DHT22;33163;0.000;0.000;2022-12-05T01:27:18;19.30;53.60
47414;DHT22;33163;0.000;0.000;2022-12-05T01:29:45;19.40;53.20
47414;DHT22;33163;0.000;0.000;2022-12-05T01:32:12;19.40;53.00
47414;DHT22;33163;0.000;0.000;2022-12-05T01:34:39;19.40;52.90
47414;DHT22;33163;0.000;0.000;2022-12-05T01:37:05;19.40;52.90
47414;DHT22;33163;0.000;0.000;2022-12-05T01:39:32;19.20;53.00
47414;DHT22;33163;0.000;0.000;2022-12-05T01:41:59;19.00;53.30
47414;DHT22;33163;0.000;0.000;2022-12-05T01:45:00;18.90;53.90
47414;DHT22;33163;0.000;0.000;2022-12-05T01:47:29;18.70;54.30
47414;DHT22;33163;0.000;0.000;2022-12-05T01:49:57;18.70;54.50
47414;DHT22;33163;0.000;0.000;2022-12-05T01:52:27;18.60;54.60
47414;DHT22;33163;0.000;0.000;2022-12-05T01:54:56;18.60;54.80
47414;DHT22;33163;0.000;0.000;2022-12-05T01:57:24;18.50;54.90
47414;DHT22;33163;0.000;0.000;2022-12-05T01:59:54;18.50;54.90
47414;DHT22;33163;0.000;0.000;2022-12-05T02:02:22;18.50;55.00
47414;DHT22;33163;0.000;0.000;2022-12-05T02:04:57;18.50;55.10
47414;DHT22;33163;0.000;0.000;2022-12-05T02:07:27;18.50;55.10
47414;DHT22;33163;0.000;0.000;2022-12-05T02:09:54;18.40;55.10
47414;DHT22;33163;0.000;0.000;2022-12-05T02:12:21;18.40;55.20
47414;DHT22;33163;0.000;0.000;2022-12-05T02:14:58;18.40;55.20
47414;DHT22;33163;0.000;0.000;2022-12-05T02:17:40;18.40;55.20
47414;DHT22;33163;0.000;0.000;2022-12-05T02:20:18;18.40;55.30
47414;DHT22;33163;0.000;0.000;2022-12-05T02:23:25;18.40;55.40
47414;DHT22;33163;0.000;0.000;2022-12-05T02:26:17;18.40;55.40
47414;DHT22;33163;0.000;0.000;2022-12-05T02:29:10;18.40;55.40
47414;DHT22;33163;0.000;0.000;2022-12-05T02:31:44;18.40;56.10
47414;DHT22;33163;0.000;0.000;2022-12-05T02:34:18;18.40;55.40
47414;DHT22;33163;0.000;0.000;2022-12-05T02:36:52;18.40;55.40
47414;DHT22;33163;0.000;0.000;2022-12-05T02:39:28;18.30;55.40
47414;DHT22;33163;0.000;0.000;2022-12-05T02:42:02;18.30;55.40
47414;DHT22;33163;0.000;0.000;2022-12-05T02:44:32;18.30;55.40
47414;DHT22;33163;0.000;0.000;2022-12-05T02:47:03;18.30;55.50
47414;DHT22;33163;0.000;0.000;2022-12-05T02:49:35;18.30;56.20
47414;DHT22;33163;0.000;0.000;2022-12-05T02:52:09;18.30;55.40
47414;DHT22;33163;0.000;0.000;2022-12-05T02:54:38;18.30;55.50
47414;DHT22;33163;0.000;0.000;2022-12-05T02:57:07;18.30;55.50
47414;DHT22;33163;0.000;0.000;2022-12-05T02:59:35;18.30;55.50
47414;DHT22;33163;0.000;0.000;2022-12-05T03:02:04;18.30;55.50
47414;DHT22;33163;0.000;0.000;2022-12-05T03:04:31;18.30;55.60
47414;DHT22;33163;0.000;0.000;2022-12-05T03:07:00;18.30;55.60
47414;DHT22;33163;0.000;0.000;2022-12-05T03:09:29;18.30;55.50
47414;DHT22;33163;0.000;0.000;2022-12-05T03:12:06;18.30;55.60
47414;DHT22;33163;0.000;0.000;2022-12-05T03:14:37;18.20;55.60
47414;DHT22;33163;0.000;0.000;2022-12-05T03:17:09;18.30;55.60
47414;DHT22;33163;0.000;0.000;2022-12-05T03:19:42;18.30;55.60
47414;DHT22;33163;0.000;0.000;2022-12-05T03:22:17;18.30;55.70
47414;DHT22;33163;0.000;0.000;2022-12-05T03:24:45;18.30;55.70
47414;DHT22;33163;0.000;0.000;2022-12-05T03:27:20;18.20;55.70
47414;DHT22;33163;0.000;0.000;2022-12-05T03:29:52;18.20;55.70
47414;DHT22;33163;0.000;0.000;2022-12-05T03:32:24;18.20;55.80
47414;DHT22;33163;0.000;0.000;2022-12-05T03:35:02;18.20;55.80
47414;DHT22;33163;0.000;0.000;2022-12-05T03:37:37;18.20;55.80
47414;DHT22;33163;0.000;0.000;2022-12-05T03:40:13;18.20;55.80
47414;DHT22;33163;0.000;0.000;2022-12-05T03:42:46;18.20;55.80
47414;DHT22;33163;0.000;0.000;2022-12-05T03:45:16;18.10;55.70
47414;DHT22;33163;0.000;0.000;2022-12-05T03:47:48;18.30;55.70
47414;DHT22;33163;0.000;0.000;2022-12-05T03:50:19;18.50;55.40
47414;DHT22;33163;0.000;0.000;2022-12-05T03:52:53;18.60;55.00
47414;DHT22;33163;0.000;0.000;2022-12-05T03:55:22;18.80;55.20
47414;DHT22;33163;0.000;0.000;2022-12-05T03:57:53;18.80;54.30
47414;DHT22;33163;0.000;0.000;2022-12-05T04:00:23;18.80;54.20
47414;DHT22;33163;0.000;0.000;2022-12-05T04:02:54;18.70;54.20
47414;DHT22;33163;0.000;0.000;2022-12-05T04:05:26;18.60;54.40
47414;DHT22;33163;0.000;0.000;2022-12-05T04:07:56;18.50;54.60
47414;DHT22;33163;0.000;0.000;2022-12-05T04:10:27;18.40;54.90
47414;DHT22;33163;0.000;0.000;2022-12-05T04:12:58;18.30;55.10
47414;DHT22;33163;0.000;0.000;2022-12-05T04:15:47;18.30;55.30
47414;DHT22;33163;0.000;0.000;2022-12-05T04:18:35;18.50;55.10
47414;DHT22;33163;0.000;0.000;2022-12-05T04:21:04;18.60;54.90
47414;DHT22;33163;0.000;0.000;2022-12-05T04:23:50;18.80;54.40
47414;DHT22;33163;0.000;0.000;2022-12-05T04:26:43;18.90;54.20
47414;DHT22;33163;0.000;0.000;2022-12-05T04:29:16;18.80;54.00
47414;DHT22;33163;0.000;0.000;2022-12-05T04:31:50;18.70;54.10
47414;DHT22;33163;0.000;0.000;2022-12-05T04:34:21;18.60;54.30
47414;DHT22;33163;0.000;0.000;2022-12-05T04:36:53;18.50;54.60
47414;DHT22;33163;0.000;0.000;2022-12-05T04:39:24;18.40;54.90
47414;DHT22;33163;0.000;0.000;2022-12-05T04:41:54;18.30;55.00
47414;DHT22;33163;0.000;0.000;2022-12-05T04:44:27;18.50;55.10
47414;DHT22;33163;0.000;0.000;2022-12-05T04:46:56;18.60;55.00
47414;DHT22;33163;0.000;0.000;2022-12-05T04:49:28;18.80;54.60
47414;DHT22;33163;0.000;0.000;2022-12-05T04:52:00;18.90;54.20
47414;DHT22;33163;0.000;0.000;2022-12-05T04:54:30;18.90;54.00
47414;DHT22;33163;0.000;0.000;2022-12-05T04:57:03;18.80;54.00
47414;DHT22;33163;0.000;0.000;2022-12-05T04:59:31;18.70;54.10
47414;DHT22;33163;0.000;0.000;2022-12-05T05:02:03;18.60;54.40
47414;DHT22;33163;0.000;0.000;2022-12-05T05:04:36;18.70;54.60
47414;DHT22;33163;0.000;0.000;2022-12-05T05:07:05;18.70;54.60
47414;DHT22;33163;0.000;0.000;2022-12-05T05:09:32;18.70;54.60
47414;DHT22;33163;0.000;0.000;2022-12-05T05:11:59;18.80;54.50
47414;DHT22;33163;0.000;0.000;2022-12-05T05:14:26;18.80;54.30
47414;DHT22;33163;0.000;0.000;2022-12-05T05:16:53;19.00;54.00
47414;DHT22;33163;0.000;0.000;2022-12-05T05:19:20;19.10;53.60
47414;DHT22;33163;0.000;0.000;2022-12-05T05:21:48;19.00;53.40
47414;DHT22;33163;0.000;0.000;2022-12-05T05:24:18;18.90;53.50
47414;DHT22;33163;0.000;0.000;2022-12-05T05:26:46;18.70;53.90
47414;DHT22;33163;0.000;0.000;2022-12-05T05:29:16;18.60;54.40
47414;DHT22;33163;0.000;0.000;2022-12-05T05:31:43;18.50;54.80
47414;DHT22;33163;0.000;0.000;2022-12-05T05:34:11;18.40;55.00
47414;DHT22;33163;0.000;0.000;2022-12-05T05:36:40;18.40;55.30
47414;DHT22;33163;0.000;0.000;2022-12-05T05:39:11;18.30;55.40
47414;DHT22;33163;0.000;0.000;2022-12-05T05:41:38;18.30;55.50
47414;DHT22;33163;0.000;0.000;2022-12-05T05:44:05;18.30;55.50
47414;DHT22;33163;0.000;0.000;2022-12-05T05:46:33;18.30;55.70
47414;DHT22;33163;0.000;0.000;2022-12-05T05:49:00;18.30;55.70
47414;DHT22;33163;0.000;0.000;2022-12-05T05:51:27;18.20;55.80
47414;DHT22;33163;0.000;0.000;2022-12-05T05:53:55;18.20;55.90
47414;DHT22;33163;0.000;0.000;2022-12-05T05:56:23;18.20;55.90
47414;DHT22;33163;0.000;0.000;2022-12-05T05:58:54;18.20;55.90
47414;DHT22;33163;0.000;0.000;2022-12-05T06:01:22;18.20;56.00
47414;DHT22;33163;0.000;0.000;2022-12-05T06:03:49;18.20;56.10
47414;DHT22;33163;0.000;0.000;2022-12-05T06:06:16;18.20;56.10
47414;DHT22;33163;0.000;0.000;2022-12-05T06:08:43;18.10;56.00
47414;DHT22;33163;0.000;0.000;2022-12-05T06:11:12;18.20;56.20
47414;DHT22;33163;0.000;0.000;2022-12-05T06:13:41;18.10;56.20
47414;DHT22;33163;0.000;0.000;2022-12-05T06:16:10;18.10;56.20
47414;DHT22;33163;0.000;0.000;2022-12-05T06:18:37;18.10;56.30
47414;DHT22;33163;0.000;0.000;2022-12-05T06:21:04;18.10;56.20
47414;DHT22;33163;0.000;0.000;2022-12-05T06:23:33;18.10;56.20
47414;DHT22;33163;0.000;0.000;2022-12-05T06:26:00;18.10;56.30
47414;DHT22;33163;0.000;0.000;2022-12-05T06:28:27;18.00;56.30
47414;DHT22;33163;0.000;0.000;2022-12-05T06:30:55;18.00;56.30
47414;DHT22;33163;0.000;0.000;2022-12-05T06:33:23;18.10;56.40
47414;DHT22;33163;0.000;0.000;2022-12-05T06:36:01;18.00;56.40
47414;DHT22;33163;0.000;0.000;2022-12-05T06:41:27;18.10;57.30
47414;DHT22;33163;0.000;0.000;2022-12-05T06:43:55;18.00;57.30
47414;DHT22;33163;0.000;0.000;2022-12-05T06:46:23;18.10;57.20
47414;DHT22;33163;0.000;0.000;2022-12-05T06:48:51;18.40;57.20
47414;DHT22;33163;0.000;0.000;2022-12-05T06:51:18;18.50;56.70
47414;DHT22;33163;0.000;0.000;2022-12-05T06:53:45;18.50;56.60
47414;DHT22;33163;0.000;0.000;2022-12-05T06:56:13;18.40;57.20
47414;DHT22;33163;0.000;0.000;2022-12-05T06:58:42;18.30;57.60
47414;DHT22;33163;0.000;0.000;2022-12-05T07:01:11;18.20;57.70
47414;DHT22;33163;0.000;0.000;2022-12-05T07:03:56;18.20;57.90
47414;DHT22;33163;0.000;0.000;2022-12-05T07:06:23;18.20;58.10
47414;DHT22;33163;0.000;0.000;2022-12-05T07:08:50;18.20;58.30
47414;DHT22;33163;0.000;0.000;2022-12-05T07:11:18;18.20;58.50
47414;DHT22;33163;0.000;0.000;2022-12-05T07:13:46;18.40;58.50
47414;DHT22;33163;0.000;0.000;2022-12-05T07:16:13;18.60;58.10
47414;DHT22;33163;0.000;0.000;2022-12-05T07:18:39;18.70;57.40
47414;DHT22;33163;0.000;0.000;2022-12-05T07:21:09;18.70;57.10
47414;DHT22;33163;0.000;0.000;2022-12-05T07:23:36;18.70;57.00
47414;DHT22;33163;0.000;0.000;2022-12-05T07:26:04;18.60;57.00
47414;DHT22;33163;0.000;0.000;2022-12-05T07:28:31;18.50;57.10
47414;DHT22;33163;0.000;0.000;2022-12-05T07:31:00;18.40;57.40
47414;DHT22;33163;0.000;0.000;2022-12-05T07:33:27;18.30;57.60
47414;DHT22;33163;0.000;0.000;2022-12-05T07:38:11;18.30;57.80
47414;DHT22;33163;0.000;0.000;2022-12-05T07:40:39;18.40;57.80
47414;DHT22;33163;0.000;0.000;2022-12-05T07:43:05;18.60;57.50
47414;DHT22;33163;0.000;0.000;2022-12-05T07:45:33;18.70;56.90
47414;DHT22;33163;0.000;0.000;2022-12-05T07:48:00;18.70;56.60
47414;DHT22;33163;0.000;0.000;2022-12-05T07:50:26;18.60;56.50
47414;DHT22;33163;0.000;0.000;2022-12-05T07:52:53;18.60;56.80
47414;DHT22;33163;0.000;0.000;2022-12-05T07:55:21;18.40;56.80
47414;DHT22;33163;0.000;0.000;2022-12-05T07:57:48;18.40;57.10
47414;DHT22;33163;0.000;0.000;2022-12-05T08:00:16;18.30;57.20
47414;DHT22;33163;0.000;0.000;2022-12-05T08:02:43;18.40;57.40
47414;DHT22;33163;0.000;0.000;2022-12-05T08:05:10;18.50;57.30
47414;DHT22;33163;0.000;0.000;2022-12-05T08:07:36;18.50;57.20
47414;DHT22;33163;0.000;0.000;2022-12-05T08:10:04;18.70;56.90
47414;DHT22;33163;0.000;0.000;2022-12-05T08:12:32;18.80;56.40
47414;DHT22;33163;0.000;0.000;2022-12-05T08:14:59;18.80;56.20
47414;DHT22;33163;0.000;0.000;2022-12-05T08:17:28;18.70;56.20
47414;DHT22;33163;0.000;0.000;2022-12-05T08:19:55;18.60;56.20
47414;DHT22;33163;0.000;0.000;2022-12-05T08:22:22;18.60;56.40
47414;DHT22;33163;0.000;0.000;2022-12-05T08:24:49;18.40;56.50
47414;DHT22;33163;0.000;0.000;2022-12-05T08:27:15;18.30;56.80
47414;DHT22;33163;0.000;0.000;2022-12-05T08:29:44;18.40;57.00
47414;DHT22;33163;0.000;0.000;2022-12-05T08:32:10;18.50;57.00
47414;DHT22;33163;0.000;0.000;2022-12-05T08:34:37;18.50;57.00
47414;DHT22;33163;0.000;0.000;2022-12-05T08:37:04;18.70;56.50
47414;DHT22;33163;0.000;0.000;2022-12-05T08:39:31;18.70;56.20
47414;DHT22;33163;0.000;0.000;2022-12-05T08:41:58;18.70;56.10
47414;DHT22;33163;0.000;0.000;2022-12-05T08:44:24;18.70;56.20
47414;DHT22;33163;0.000;0.000;2022-12-05T08:46:52;18.60;56.20
47414;DHT22;33163;0.000;0.000;2022-12-05T08:49:19;18.50;56.40
47414;DHT22;33163;0.000;0.000;2022-12-05T08:51:46;18.40;56.60
47414;DHT22;33163;0.000;0.000;2022-12-05T08:54:13;18.40;56.80
47414;DHT22;33163;0.000;0.000;2022-12-05T08:56:40;18.50;56.80
47414;DHT22;33163;0.000;0.000;2022-12-05T08:59:06;18.50;56.80
47414;DHT22;33163;0.000;0.000;2022-12-05T09:01:34;18.60;56.60
47414;DHT22;33163;0.000;0.000;2022-12-05T09:04:05;18.80;56.20
47414;DHT22;33163;0.000;0.000;2022-12-05T09:06:33;18.80;55.90
47414;DHT22;33163;0.000;0.000;2022-12-05T09:09:04;18.80;55.90
47414;DHT22;33163;0.000;0.000;2022-12-05T09:11:33;18.70;55.90
47414;DHT22;33163;0.000;0.000;2022-12-05T09:14:00;18.60;56.00
47414;DHT22;33163;0.000;0.000;2022-12-05T09:16:29;18.50;56.20
47414;DHT22;33163;0.000;0.000;2022-12-05T09:18:56;18.40;56.40
47414;DHT22;33163;0.000;0.000;2022-12-05T09:21:26;18.40;56.80
47414;DHT22;33163;0.000;0.000;2022-12-05T09:23:53;18.60;56.80
47414;DHT22;33163;0.000;0.000;2022-12-05T09:26:22;18.60;56.80
47414;DHT22;33163;0.000;0.000;2022-12-05T09:28:50;18.70;56.20
47414;DHT22;33163;0.000;0.000;2022-12-05T09:31:19;18.80;56.00
47414;DHT22;33163;0.000;0.000;2022-12-05T09:33:47;18.70;55.90
47414;DHT22;33163;0.000;0.000;2022-12-05T09:36:16;18.70;56.00
47414;DHT22;33163;0.000;0.000;2022-12-05T09:38:44;18.60;56.10
47414;DHT22;33163;0.000;0.000;2022-12-05T09:41:19;18.60;56.40
47414;DHT22;33163;0.000;0.000;2022-12-05T09:44:14;18.60;56.40
47414;DHT22;33163;0.000;0.000;2022-12-05T09:46:51;18.60;56.50
47414;DHT22;33163;0.000;0.000;2022-12-05T09:49:18;18.70;56.50
47414;DHT22;33163;0.000;0.000;2022-12-05T09:51:46;18.80;55.90
47414;DHT22;33163;0.000;0.000;2022-12-05T09:54:15;18.90;55.70
47414;DHT22;33163;0.000;0.000;2022-12-05T09:56:43;18.80;55.70
47414;DHT22;33163;0.000;0.000;2022-12-05T09:59:13;18.70;55.70
47414;DHT22;33163;0.000;0.000;2022-12-05T10:01:45;18.70;55.90
47414;DHT22;33163;0.000;0.000;2022-12-05T10:04:42;18.60;56.10
47414;DHT22;33163;0.000;0.000;2022-12-05T10:07:18;18.70;57.00
47414;DHT22;33163;0.000;0.000;2022-12-05T10:09:55;18.60;56.40
47414;DHT22;33163;0.000;0.000;2022-12-05T10:12:40;18.70;56.50
47414;DHT22;33163;0.000;0.000;2022-12-05T10:15:12;18.90;55.90
47414;DHT22;33163;0.000;0.000;2022-12-05T10:17:43;18.90;55.70
47414;DHT22;33163;0.000;0.000;2022-12-05T10:20:15;18.80;55.70
47414;DHT22;33163;0.000;0.000;2022-12-05T10:22:45;18.80;55.70
47414;DHT22;33163;0.000;0.000;2022-12-05T10:25:17;18.70;55.80
47414;DHT22;33163;0.000;0.000;2022-12-05T10:27:48;18.60;56.00
47414;DHT22;33163;0.000;0.000;2022-12-05T10:30:17;18.50;56.10
47414;DHT22;33163;0.000;0.000;2022-12-05T10:32:51;18.50;56.50
47414;DHT22;33163;0.000;0.000;2022-12-05T10:35:20;18.60;56.50
47414;DHT22;33163;0.000;0.000;2022-12-05T10:37:49;18.60;56.60
47414;DHT22;33163;0.000;0.000;2022-12-05T10:40:18;18.80;56.30
47414;DHT22;33163;0.000;0.000;2022-12-05T10:42:46;18.80;56.10
47414;DHT22;33163;0.000;0.000;2022-12-05T10:45:17;18.70;56.20
47414;DHT22;33163;0.000;0.000;2022-12-05T10:47:44;18.80;56.20
47414;DHT22;33163;0.000;0.000;2022-12-05T10:50:27;18.90;55.70
47414;DHT22;33163;0.000;0.000;2022-12-05T10:52:56;18.90;56.30
47414;DHT22;33163;0.000;0.000;2022-12-05T10:55:29;18.90;55.70
47414;DHT22;33163;0.000;0.000;2022-12-05T10:58:09;18.80;56.00
47414;DHT22;33163;0.000;0.000;2022-12-05T11:00:36;18.80;56.20
47414;DHT22;33163;0.000;0.000;2022-12-05T11:03:22;18.70;56.20
47414;DHT22;33163;0.000;0.000;2022-12-05T11:05:50;18.80;56.20
47414;DHT22;33163;0.000;0.000;2022-12-05T11:08:21;18.90;56.00
47414;DHT22;33163;0.000;0.000;2022-12-05T11:11:00;19.00;55.60
47414;DHT22;33163;0.000;0.000;2022-12-05T11:13:27;19.00;55.40
47414;DHT22;33163;0.000;0.000;2022-12-05T11:15:54;19.00;55.40
47414;DHT22;33163;0.000;0.000;2022-12-05T11:18:27;18.90;55.40
47414;DHT22;33163;0.000;0.000;2022-12-05T11:20:55;18.90;55.60
47414;DHT22;33163;0.000;0.000;2022-12-05T11:23:25;18.80;56.00
47414;DHT22;33163;0.000;0.000;2022-12-05T11:25:57;18.80;56.20
47414;DHT22;33163;0.000;0.000;2022-12-05T11:28:34;18.80;56.30
47414;DHT22;33163;0.000;0.000;2022-12-05T11:31:05;18.90;56.00
47414;DHT22;33163;0.000;0.000;2022-12-05T11:33:34;18.90;55.90
47414;DHT22;33163;0.000;0.000;2022-12-05T11:36:05;19.10;55.60
47414;DHT22;33163;0.000;0.000;2022-12-05T11:38:38;19.20;55.30
47414;DHT22;33163;0.000;0.000;2022-12-05T11:41:31;19.10;55.20
47414;DHT22;33163;0.000;0.000;2022-12-05T11:44:12;18.90;55.60
47414;DHT22;33163;0.000;0.000;2022-12-05T11:46:48;18.90;55.80
47414;DHT22;33163;0.000;0.000;2022-12-05T11:49:35;18.90;55.70
47414;DHT22;33163;0.000;0.000;2022-12-05T11:52:14;19.00;55.70
47414;DHT22;33163;0.000;0.000;2022-12-05T11:54:54;19.00;55.70
47414;DHT22;33163;0.000;0.000;2022-12-05T11:57:50;19.20;55.30
47414;DHT22;33163;0.000;0.000;2022-12-05T12:00:23;19.30;55.10
47414;DHT22;33163;0.000;0.000;2022-12-05T12:03:17;19.20;55.00
47414;DHT22;33163;0.000;0.000;2022-12-05T12:05:54;19.20;55.10
47414;DHT22;33163;0.000;0.000;2022-12-05T12:10:16;19.10;55.20
47414;DHT22;33163;0.000;0.000;2022-12-05T12:12:54;19.00;55.30
47414;DHT22;33163;0.000;0.000;2022-12-05T12:15:49;18.90;55.40
47414;DHT22;33163;0.000;0.000;2022-12-05T12:18:32;18.80;55.80
47414;DHT22;33163;0.000;0.000;2022-12-05T12:21:07;18.60;56.00
47414;DHT22;33163;0.000;0.000;2022-12-05T12:23:48;18.50;56.40
47414;DHT22;33163;0.000;0.000;2022-12-05T12:26:24;18.50;56.60
47414;DHT22;33163;0.000;0.000;2022-12-05T12:28:57;18.70;56.70
47414;DHT22;33163;0.000;0.000;2022-12-05T12:31:37;18.70;56.70
47414;DHT22;33163;0.000;0.000;2022-12-05T12:34:26;18.90;56.10
47414;DHT22;33163;0.000;0.000;2022-12-05T12:37:01;18.90;55.90
47414;DHT22;33163;0.000;0.000;2022-12-05T12:39:35;18.80;55.90
47414;DHT22;33163;0.000;0.000;2022-12-05T12:42:16;18.70;55.90
47414;DHT22;33163;0.000;0.000;2022-12-05T12:47:46;18.60;56.60
47414;DHT22;33163;0.000;0.000;2022-12-05T12:50:19;18.60;56.80
47414;DHT22;33163;0.000;0.000;2022-12-05T12:55:40;18.80;56.60
47414;DHT22;33163;0.000;0.000;2022-12-05T12:58:22;18.90;56.80
47414;DHT22;33163;0.000;0.000;2022-12-05T13:01:00;18.80;55.90
47414;DHT22;33163;0.000;0.000;2022-12-05T13:03:30;18.80;56.10
47414;DHT22;33163;0.000;0.000;2022-12-05T13:06:05;18.70;56.20
47414;DHT22;33163;0.000;0.000;2022-12-05T13:08:37;18.60;56.50
47414;DHT22;33163;0.000;0.000;2022-12-05T13:11:08;18.40;56.70
47414;DHT22;33163;0.000;0.000;2022-12-05T13:13:41;18.70;56.90
47414;DHT22;33163;0.000;0.000;2022-12-05T13:16:12;18.60;56.90
47414;DHT22;33163;0.000;0.000;2022-12-05T13:18:42;18.70;56.90
47414;DHT22;33163;0.000;0.000;2022-12-05T13:21:09;18.90;56.50
47414;DHT22;33163;0.000;0.000;2022-12-05T13:23:42;18.90;56.70
47414;DHT22;33163;0.000;0.000;2022-12-05T13:26:11;18.90;56.00
47414;DHT22;33163;0.000;0.000;2022-12-05T13:28:48;18.90;56.00
47414;DHT22;33163;0.000;0.000;2022-12-05T13:31:15;18.70;56.10
47414;DHT22;33163;0.000;0.000;2022-12-05T13:33:45;18.70;56.30
47414;DHT22;33163;0.000;0.000;2022-12-05T13:36:14;18.60;56.50
47414;DHT22;33163;0.000;0.000;2022-12-05T13:39:01;18.50;56.70
47414;DHT22;33163;0.000;0.000;2022-12-05T13:41:48;18.60;56.90
47414;DHT22;33163;0.000;0.000;2022-12-05T13:44:40;18.70;57.00
47414;DHT22;33163;0.000;0.000;2022-12-05T13:47:22;18.70;57.00
47414;DHT22;33163;0.000;0.000;2022-12-05T13:49:53;18.80;56.90
47414;DHT22;33163;0.000;0.000;2022-12-05T13:52:25;18.90;56.80
47414;DHT22;33163;0.000;0.000;2022-12-05T13:54:57;18.90;56.60
47414;DHT22;33163;0.000;0.000;2022-12-05T13:57:47;19.10;56.30
47414;DHT22;33163;0.000;0.000;2022-12-05T14:00:25;19.20;56.10
47414;DHT22;33163;0.000;0.000;2022-12-05T14:02:55;19.20;55.90
47414;DHT22;33163;0.000;0.000;2022-12-05T14:05:48;19.20;55.90
47414;DHT22;33163;0.000;0.000;2022-12-05T14:11:20;19.00;56.00
47414;DHT22;33163;0.000;0.000;2022-12-05T14:13:47;18.90;56.10
47414;DHT22;33163;0.000;0.000;2022-12-05T14:16:46;18.80;56.30
47414;DHT22;33163;0.000;0.000;2022-12-05T14:19:42;18.60;56.60
47414;DHT22;33163;0.000;0.000;2022-12-05T14:25:12;18.50;57.10
47414;DHT22;33163;0.000;0.000;2022-12-05T14:27:50;18.70;57.10
47414;DHT22;33163;0.000;0.000;2022-12-05T14:30:22;18.80;57.10
47414;DHT22;33163;0.000;0.000;2022-12-05T14:32:53;19.00;56.70
47414;DHT22;33163;0.000;0.000;2022-12-05T14:35:24;18.90;56.40
47414;DHT22;33163;0.000;0.000;2022-12-05T14:37:55;18.80;56.40
47414;DHT22;33163;0.000;0.000;2022-12-05T14:40:28;18.70;56.80
47414;DHT22;33163;0.000;0.000;2022-12-05T14:42:57;18.60;57.00
47414;DHT22;33163;0.000;0.000;2022-12-05T14:45:33;18.50;57.20
47414;DHT22;33163;0.000;0.000;2022-12-05T14:48:04;18.60;57.40
47414;DHT22;33163;0.000;0.000;2022-12-05T14:50:42;18.70;57.30
47414;DHT22;33163;0.000;0.000;2022-12-05T14:53:39;18.80;57.30
47414;DHT22;33163;0.000;0.000;2022-12-05T14:56:14;18.90;56.70
47414;DHT22;33163;0.000;0.000;2022-12-05T14:58:46;18.90;56.60
47414;DHT22;33163;0.000;0.000;2022-12-05T15:01:16;18.70;56.60
47414;DHT22;33163;0.000;0.000;2022-12-05T15:04:08;18.60;56.90
47414;DHT22;33163;0.000;0.000;2022-12-05T15:06:47;18.60;57.10
47414;DHT22;33163;0.000;0.000;2022-12-05T15:09:30;18.50;57.40
47414;DHT22;33163;0.000;0.000;2022-12-05T15:12:03;18.70;57.40
47414;DHT22;33163;0.000;0.000;2022-12-05T15:14:36;18.70;57.40
47414;DHT22;33163;0.000;0.000;2022-12-05T15:17:06;18.90;57.00
47414;DHT22;33163;0.000;0.000;2022-12-05T15:19:44;18.90;56.60
47414;DHT22;33163;0.000;0.000;2022-12-05T15:22:12;18.80;56.50
47414;DHT22;33163;0.000;0.000;2022-12-05T15:24:40;18.70;56.70
47414;DHT22;33163;0.000;0.000;2022-12-05T15:27:09;18.60;56.80
47414;DHT22;33163;0.000;0.000;2022-12-05T15:29:37;18.50;57.00
47414;DHT22;33163;0.000;0.000;2022-12-05T15:32:14;18.50;57.20
47414;DHT22;33163;0.000;0.000;2022-12-05T15:34:45;18.70;57.40
47414;DHT22;33163;0.000;0.000;2022-12-05T15:37:16;18.60;57.30
47414;DHT22;33163;0.000;0.000;2022-12-05T15:39:55;18.70;57.20
47414;DHT22;33163;0.000;0.000;2022-12-05T15:42:24;18.90;56.70
47414;DHT22;33163;0.000;0.000;2022-12-05T15:44:52;19.00;56.40
47414;DHT22;33163;0.000;0.000;2022-12-05T15:47:21;18.90;56.40
47414;DHT22;33163;0.000;0.000;2022-12-05T15:49:50;18.80;56.40
47414;DHT22;33163;0.000;0.000;2022-12-05T15:52:24;18.80;56.60
47414;DHT22;33163;0.000;0.000;2022-12-05T15:54:55;18.70;56.70
47414;DHT22;33163;0.000;0.000;2022-12-05T15:57:27;18.60;56.80
47414;DHT22;33163;0.000;0.000;2022-12-05T16:00:00;18.60;57.10
47414;DHT22;33163;0.000;0.000;2022-12-05T16:02:35;18.70;57.10
47414;DHT22;33163;0.000;0.000;2022-12-05T16:05:21;18.70;57.10
47414;DHT22;33163;0.000;0.000;2022-12-05T16:07:51;18.90;56.70
47414;DHT22;33163;0.000;0.000;2022-12-05T16:10:19;18.90;56.60
47414;DHT22;33163;0.000;0.000;2022-12-05T16:12:48;18.80;56.80
47414;DHT22;33163;0.000;0.000;2022-12-05T16:15:20;18.90;56.70
47414;DHT22;33163;0.000;0.000;2022-12-05T16:17:52;19.00;56.40
47414;DHT22;33163;0.000;0.000;2022-12-05T16:20:28;19.20;56.00
47414;DHT22;33163;0.000;0.000;2022-12-05T16:22:58;19.30;55.80
47414;DHT22;33163;0.000;0.000;2022-12-05T16:25:27;19.30;55.60
47414;DHT22;33163;0.000;0.000;2022-12-05T16:28:02;19.30;55.50
47414;DHT22;33163;0.000;0.000;2022-12-05T16:30:30;19.40;55.40
47414;DHT22;33163;0.000;0.000;2022-12-05T16:32:59;19.40;55.30